sensor_id;sensor_type;location;lat;lon;timestamp;pressure;altitude;pressure_sealevel;temperature;humidity
44385;BME280;30101;32.778;34.994;2022-08-11T00:00:14;96942.41;;;25.32;70.13
44385;BME280;30101;32.778;34.994;2022-08-11T00:05:20;96942.41;;;25.32;70.24
44385;BME280;30101;32.778;34.994;2022-08-11T00:10:30;96945.94;;;25.32;70.48
44385;BME280;30101;32.778;34.994;2022-08-11T00:15:43;96937.28;;;25.30;70.26
44385;BME280;30101;32.778;34.994;2022-08-11T00:20:50;96941.94;;;25.29;70.19
44385;BME280;30101;32.778;34.994;2022-08-11T00:26:05;96946.13;;;25.27;70.07
44385;BME280;30101;32.778;34.994;2022-08-11T00:31:29;96945.31;;;25.26;70.12
44385;BME280;30101;32.778;34.994;2022-08-11T00:47:26;96955.59;;;25.29;70.68
44385;BME280;30101;32.778;34.994;2022-08-11T01:04:22;96940.84;;;25.22;70.31
44385;BME280;30101;32.778;34.994;2022-08-11T01:43:53;96945.19;;;25.06;70.82
44385;BME280;30101;32.778;34.994;2022-08-11T01:49:09;96950.50;;;25.02;70.84
44385;BME280;30101;32.778;34.994;2022-08-11T01:54:58;96954.97;;;24.98;70.81
44385;BME280;30101;32.778;34.994;2022-08-11T02:00:12;96950.16;;;24.95;70.96
44385;BME280;30101;32.778;34.994;2022-08-11T02:21:43;96956.59;;;24.99;71.30
44385;BME280;30101;32.778;34.994;2022-08-11T02:27:01;96958.84;;;25.06;70.98
44385;BME280;30101;32.778;34.994;2022-08-11T02:32:20;96962.50;;;25.01;71.15
44385;BME280;30101;32.778;34.994;2022-08-11T02:48:23;96969.91;;;25.00;71.68
44385;BME280;30101;32.778;34.994;2022-08-11T02:59:26;96977.31;;;25.00;71.49
44385;BME280;30101;32.778;34.994;2022-08-11T03:15:51;96982.28;;;24.98;72.06
44385;BME280;30101;32.778;34.994;2022-08-11T03:26:14;96995.94;;;24.98;72.00
44385;BME280;30101;32.778;34.994;2022-08-11T03:58:30;97006.25;;;25.18;71.36
44385;BME280;30101;32.778;34.994;2022-08-11T04:46:30;97014.88;;;26.49;70.06
44385;BME280;30101;32.778;34.994;2022-08-11T04:57:07;97021.66;;;26.43;70.13
44385;BME280;30101;32.778;34.994;2022-08-11T05:12:58;97031.84;;;26.63;69.40
44385;BME280;30101;32.778;34.994;2022-08-11T05:18:19;97035.13;;;26.56;69.76
44385;BME280;30101;32.778;34.994;2022-08-11T05:23:25;97025.13;;;26.60;69.55
44385;BME280;30101;32.778;34.994;2022-08-11T05:28:36;97032.53;;;26.81;69.23
44385;BME280;30101;32.778;34.994;2022-08-11T05:34:23;97033.91;;;27.17;68.33
44385;BME280;30101;32.778;34.994;2022-08-11T05:39:38;97043.50;;;27.43;67.79
44385;BME280;30101;32.778;34.994;2022-08-11T05:44:47;97047.63;;;27.50;67.60
44385;BME280;30101;32.778;34.994;2022-08-11T05:49:52;97054.38;;;27.73;67.35
44385;BME280;30101;32.778;34.994;2022-08-11T05:55:01;97051.75;;;27.77;66.79
44385;BME280;30101;32.778;34.994;2022-08-11T06:00:09;97059.22;;;28.01;66.72
44385;BME280;30101;32.778;34.994;2022-08-11T06:05:13;97055.38;;;28.26;65.79
44385;BME280;30101;32.778;34.994;2022-08-11T06:10:35;97059.53;;;28.57;64.77
44385;BME280;30101;32.778;34.994;2022-08-11T06:15:46;97054.44;;;29.76;62.70
44385;BME280;30101;32.778;34.994;2022-08-11T06:20:52;97048.00;;;31.53;59.38
44385;BME280;30101;32.778;34.994;2022-08-11T06:26:07;97057.09;;;33.81;54.52
44385;BME280;30101;32.778;34.994;2022-08-11T06:31:19;97056.75;;;34.75;51.69
44385;BME280;30101;32.778;34.994;2022-08-11T06:36:53;97063.63;;;33.96;53.35
44385;BME280;30101;32.778;34.994;2022-08-11T06:42:09;97074.31;;;33.64;53.55
44385;BME280;30101;32.778;34.994;2022-08-11T06:47:18;97073.66;;;34.55;50.94
44385;BME280;30101;32.778;34.994;2022-08-11T06:52:34;97075.75;;;35.28;48.26
44385;BME280;30101;32.778;34.994;2022-08-11T06:57:38;97074.50;;;34.59;49.76
44385;BME280;30101;32.778;34.994;2022-08-11T07:02:56;97086.97;;;33.98;51.23
44385;BME280;30101;32.778;34.994;2022-08-11T07:13:37;97086.75;;;32.41;54.51
44385;BME280;30101;32.778;34.994;2022-08-11T07:18:48;97093.59;;;31.66;55.70
44385;BME280;30101;32.778;34.994;2022-08-11T07:23:54;97095.44;;;31.23;56.62
44385;BME280;30101;32.778;34.994;2022-08-11T07:28:58;97106.75;;;30.83;57.17
44385;BME280;30101;32.778;34.994;2022-08-11T07:34:20;97097.31;;;31.00;57.07
44385;BME280;30101;32.778;34.994;2022-08-11T07:39:27;97097.09;;;31.24;56.46
44385;BME280;30101;32.778;34.994;2022-08-11T07:44:43;97096.78;;;30.94;56.79
44385;BME280;30101;32.778;34.994;2022-08-11T07:49:55;97096.50;;;30.99;56.80
44385;BME280;30101;32.778;34.994;2022-08-11T07:55:05;97091.78;;;31.00;56.15
44385;BME280;30101;32.778;34.994;2022-08-11T08:00:13;97083.22;;;30.70;56.49
44385;BME280;30101;32.778;34.994;2022-08-11T08:05:18;97078.94;;;30.72;56.88
44385;BME280;30101;32.778;34.994;2022-08-11T08:10:25;97092.34;;;30.89;56.60
44385;BME280;30101;32.778;34.994;2022-08-11T08:15:29;97088.81;;;31.24;56.01
44385;BME280;30101;32.778;34.994;2022-08-11T08:20:51;97093.25;;;31.13;55.81
44385;BME280;30101;32.778;34.994;2022-08-11T08:25:57;97089.38;;;30.98;56.49
44385;BME280;30101;32.778;34.994;2022-08-11T08:31:01;97084.91;;;31.09;56.24
44385;BME280;30101;32.778;34.994;2022-08-11T08:36:05;97084.66;;;31.34;55.69
44385;BME280;30101;32.778;34.994;2022-08-11T08:41:09;97080.16;;;31.26;56.02
44385;BME280;30101;32.778;34.994;2022-08-11T08:46:27;97079.91;;;31.15;55.89
44385;BME280;30101;32.778;34.994;2022-08-11T08:51:36;97080.50;;;30.89;56.47
44385;BME280;30101;32.778;34.994;2022-08-11T08:57:03;97075.94;;;30.97;56.02
44385;BME280;30101;32.778;34.994;2022-08-11T09:02:08;97064.50;;;31.14;55.72
44385;BME280;30101;32.778;34.994;2022-08-11T09:07:15;97070.38;;;30.93;56.22
44385;BME280;30101;32.778;34.994;2022-08-11T09:12:20;97069.31;;;30.66;56.43
44385;BME280;30101;32.778;34.994;2022-08-11T09:17:46;97072.16;;;30.54;56.72
44385;BME280;30101;32.778;34.994;2022-08-11T09:22:58;97069.44;;;30.38;57.21
44385;BME280;30101;32.778;34.994;2022-08-11T09:28:22;97057.72;;;30.25;57.40
44385;BME280;30101;32.778;34.994;2022-08-11T09:33:27;97064.09;;;30.14;57.32
44385;BME280;30101;32.778;34.994;2022-08-11T09:38:40;97050.03;;;30.03;57.52
44385;BME280;30101;32.778;34.994;2022-08-11T09:43:49;97066.63;;;29.91;57.71
44385;BME280;30101;32.778;34.994;2022-08-11T09:48:56;97059.44;;;29.86;57.98
44385;BME280;30101;32.778;34.994;2022-08-11T09:54:01;97059.88;;;29.88;58.31
44385;BME280;30101;32.778;34.994;2022-08-11T09:59:07;97058.38;;;30.06;57.83
44385;BME280;30101;32.778;34.994;2022-08-11T10:04:16;97060.41;;;30.09;58.04
44385;BME280;30101;32.778;34.994;2022-08-11T10:09:21;97050.28;;;29.82;58.56
44385;BME280;30101;32.778;34.994;2022-08-11T10:14:28;97058.03;;;29.64;58.50
44385;BME280;30101;32.778;34.994;2022-08-11T10:19:37;97063.66;;;29.68;59.00
44385;BME280;30101;32.778;34.994;2022-08-11T10:24:43;97061.91;;;29.75;58.55
44385;BME280;30101;32.778;34.994;2022-08-11T10:29:47;97058.28;;;29.87;58.18
44385;BME280;30101;32.778;34.994;2022-08-11T10:34:54;97061.66;;;29.80;58.06
44385;BME280;30101;32.778;34.994;2022-08-11T10:39:59;97053.94;;;29.86;58.47
44385;BME280;30101;32.778;34.994;2022-08-11T10:45:05;97052.78;;;30.03;57.82
44385;BME280;30101;32.778;34.994;2022-08-11T10:50:12;97051.41;;;30.25;57.33
44385;BME280;30101;32.778;34.994;2022-08-11T10:55:16;97048.47;;;30.18;57.52
44385;BME280;30101;32.778;34.994;2022-08-11T11:00:20;97057.03;;;30.00;58.03
44385;BME280;30101;32.778;34.994;2022-08-11T11:05:28;97051.13;;;29.70;58.41
44385;BME280;30101;32.778;34.994;2022-08-11T11:10:33;97044.78;;;29.54;58.96
44385;BME280;30101;32.778;34.994;2022-08-11T11:15:45;97064.09;;;29.42;58.99
44385;BME280;30101;32.778;34.994;2022-08-11T11:31:52;97061.91;;;29.35;59.35
44385;BME280;30101;32.778;34.994;2022-08-11T11:36:59;97063.88;;;29.35;59.56
44385;BME280;30101;32.778;34.994;2022-08-11T11:42:06;97059.75;;;29.28;59.61
44385;BME280;30101;32.778;34.994;2022-08-11T11:47:12;97059.47;;;29.18;59.45
44385;BME280;30101;32.778;34.994;2022-08-11T11:52:19;97068.00;;;29.28;59.83
44385;BME280;30101;32.778;34.994;2022-08-11T11:57:23;97057.13;;;29.32;59.86
44385;BME280;30101;32.778;34.994;2022-08-11T12:02:27;97052.78;;;29.31;60.03
44385;BME280;30101;32.778;34.994;2022-08-11T12:07:31;97055.41;;;29.27;59.55
44385;BME280;30101;32.778;34.994;2022-08-11T12:12:36;97047.31;;;29.19;59.68
44385;BME280;30101;32.778;34.994;2022-08-11T12:17:40;97044.13;;;29.17;59.99
44385;BME280;30101;32.778;34.994;2022-08-11T12:22:44;97043.41;;;29.20;59.66
44385;BME280;30101;32.778;34.994;2022-08-11T12:27:48;97036.41;;;29.22;59.29
44385;BME280;30101;32.778;34.994;2022-08-11T12:32:52;97031.81;;;29.26;59.66
44385;BME280;30101;32.778;34.994;2022-08-11T12:37:56;97038.47;;;29.25;59.68
44385;BME280;30101;32.778;34.994;2022-08-11T12:43:15;97040.22;;;29.18;59.93
44385;BME280;30101;32.778;34.994;2022-08-11T12:48:25;97028.13;;;28.94;60.05
44385;BME280;30101;32.778;34.994;2022-08-11T12:54:00;97033.75;;;28.98;60.10
44385;BME280;30101;32.778;34.994;2022-08-11T12:59:06;97034.28;;;29.03;60.03
44385;BME280;30101;32.778;34.994;2022-08-11T13:04:10;97028.19;;;29.10;59.68
44385;BME280;30101;32.778;34.994;2022-08-11T13:09:14;97019.16;;;29.10;59.95
44385;BME280;30101;32.778;34.994;2022-08-11T13:14:18;97008.06;;;29.06;59.43
44385;BME280;30101;32.778;34.994;2022-08-11T13:19:23;97018.72;;;29.08;59.96
44385;BME280;30101;32.778;34.994;2022-08-11T13:24:28;97011.06;;;29.01;60.19
44385;BME280;30101;32.778;34.994;2022-08-11T13:29:33;97014.53;;;28.98;59.88
44385;BME280;30101;32.778;34.994;2022-08-11T13:34:41;97015.44;;;28.77;60.69
44385;BME280;30101;32.778;34.994;2022-08-11T13:39:45;97001.16;;;28.60;60.84
44385;BME280;30101;32.778;34.994;2022-08-11T13:44:49;97012.63;;;28.49;61.14
44385;BME280;30101;32.778;34.994;2022-08-11T13:49:56;97015.47;;;28.53;60.72
44385;BME280;30101;32.778;34.994;2022-08-11T13:55:10;97018.91;;;28.50;61.01
44385;BME280;30101;32.778;34.994;2022-08-11T14:00:35;97007.47;;;28.48;61.24
44385;BME280;30101;32.778;34.994;2022-08-11T14:05:46;97008.03;;;28.54;61.51
44385;BME280;30101;32.778;34.994;2022-08-11T14:10:51;97009.16;;;28.65;61.61
44385;BME280;30101;32.778;34.994;2022-08-11T14:15:58;97009.94;;;28.65;61.16
44385;BME280;30101;32.778;34.994;2022-08-11T14:21:04;97005.63;;;28.52;61.22
44385;BME280;30101;32.778;34.994;2022-08-11T14:26:08;97006.34;;;28.49;61.81
44385;BME280;30101;32.778;34.994;2022-08-11T14:31:14;97006.91;;;28.42;61.47
44385;BME280;30101;32.778;34.994;2022-08-11T14:36:20;97011.13;;;28.40;61.84
44385;BME280;30101;32.778;34.994;2022-08-11T14:41:25;97014.44;;;28.33;61.75
44385;BME280;30101;32.778;34.994;2022-08-11T14:46:29;97005.88;;;28.22;62.16
44385;BME280;30101;32.778;34.994;2022-08-11T14:51:40;97006.31;;;28.12;62.42
44385;BME280;30101;32.778;34.994;2022-08-11T14:56:48;97008.47;;;28.07;62.32
44385;BME280;30101;32.778;34.994;2022-08-11T15:01:52;97007.28;;;27.83;62.71
44385;BME280;30101;32.778;34.994;2022-08-11T15:06:56;97006.59;;;27.74;63.13
44385;BME280;30101;32.778;34.994;2022-08-11T15:11:59;97011.97;;;27.83;62.94
44385;BME280;30101;32.778;34.994;2022-08-11T15:17:05;97014.94;;;27.78;63.35
44385;BME280;30101;32.778;34.994;2022-08-11T15:22:09;97019.72;;;27.68;63.30
44385;BME280;30101;32.778;34.994;2022-08-11T15:27:16;97021.25;;;27.57;63.52
44385;BME280;30101;32.778;34.994;2022-08-11T15:32:22;97011.06;;;27.46;63.79
44385;BME280;30101;32.778;34.994;2022-08-11T15:37:27;97016.09;;;27.43;63.93
44385;BME280;30101;32.778;34.994;2022-08-11T15:42:37;97010.16;;;27.41;64.08
44385;BME280;30101;32.778;34.994;2022-08-11T15:47:58;97019.22;;;27.33;64.09
44385;BME280;30101;32.778;34.994;2022-08-11T15:53:19;97013.03;;;27.24;64.32
44385;BME280;30101;32.778;34.994;2022-08-11T15:58:30;97022.25;;;27.20;64.49
44385;BME280;30101;32.778;34.994;2022-08-11T16:04:24;97021.66;;;27.14;64.60
44385;BME280;30101;32.778;34.994;2022-08-11T16:09:22;97026.25;;;27.01;64.76
44385;BME280;30101;32.778;34.994;2022-08-11T16:14:35;97015.13;;;26.85;65.08
44385;BME280;30101;32.778;34.994;2022-08-11T16:19:41;97020.19;;;26.75;65.49
44385;BME280;30101;32.778;34.994;2022-08-11T16:24:47;97021.16;;;26.70;65.62
44385;BME280;30101;32.778;34.994;2022-08-11T16:30:13;97021.88;;;26.58;65.80
44385;BME280;30101;32.778;34.994;2022-08-11T16:35:23;97029.38;;;26.49;66.20
44385;BME280;30101;32.778;34.994;2022-08-11T16:40:29;97033.56;;;26.47;66.46
44385;BME280;30101;32.778;34.994;2022-08-11T16:45:34;97036.16;;;26.43;66.39
44385;BME280;30101;32.778;34.994;2022-08-11T16:50:40;97044.53;;;26.38;66.87
44385;BME280;30101;32.778;34.994;2022-08-11T16:55:47;97052.44;;;26.31;66.85
44385;BME280;30101;32.778;34.994;2022-08-11T17:00:56;97052.50;;;26.22;67.28
44385;BME280;30101;32.778;34.994;2022-08-11T17:06:05;97052.69;;;26.17;67.17
44385;BME280;30101;32.778;34.994;2022-08-11T17:11:10;97047.53;;;26.16;67.27
44385;BME280;30101;32.778;34.994;2022-08-11T17:16:20;97059.59;;;26.15;67.69
44385;BME280;30101;32.778;34.994;2022-08-11T17:21:29;97066.41;;;26.08;67.58
44385;BME280;30101;32.778;34.994;2022-08-11T17:26:41;97063.50;;;26.05;67.89
44385;BME280;30101;32.778;34.994;2022-08-11T17:31:46;97060.31;;;26.03;67.80
44385;BME280;30101;32.778;34.994;2022-08-11T17:36:54;97064.47;;;26.00;68.27
44385;BME280;30101;32.778;34.994;2022-08-11T17:41:59;97073.34;;;25.97;68.17
44385;BME280;30101;32.778;34.994;2022-08-11T17:47:03;97080.75;;;25.97;68.17
44385;BME280;30101;32.778;34.994;2022-08-11T17:52:09;97076.72;;;25.94;68.19
44385;BME280;30101;32.778;34.994;2022-08-11T17:57:13;97077.06;;;25.93;68.49
44385;BME280;30101;32.778;34.994;2022-08-11T18:02:28;97080.94;;;25.92;68.53
44385;BME280;30101;32.778;34.994;2022-08-11T18:07:38;97081.25;;;25.90;68.76
44385;BME280;30101;32.778;34.994;2022-08-11T18:12:45;97085.09;;;25.89;69.24
44385;BME280;30101;32.778;34.994;2022-08-11T18:17:49;97089.78;;;25.89;69.24
44385;BME280;30101;32.778;34.994;2022-08-11T18:22:54;97089.78;;;25.89;69.33
44385;BME280;30101;32.778;34.994;2022-08-11T18:27:59;97093.63;;;25.88;69.44
44385;BME280;30101;32.778;34.994;2022-08-11T18:33:04;97102.50;;;25.85;69.61
44385;BME280;30101;32.778;34.994;2022-08-11T18:38:29;97094.81;;;25.78;69.62
44385;BME280;30101;32.778;34.994;2022-08-11T18:43:41;97096.22;;;25.75;69.73
44385;BME280;30101;32.778;34.994;2022-08-11T18:48:50;97095.91;;;25.68;69.10
44385;BME280;30101;32.778;34.994;2022-08-11T18:54:01;97105.22;;;25.67;69.14
44385;BME280;30101;32.778;34.994;2022-08-11T18:59:06;97100.41;;;25.64;69.22
44385;BME280;30101;32.778;34.994;2022-08-11T19:04:15;97098.66;;;25.60;69.20
44385;BME280;30101;32.778;34.994;2022-08-11T19:09:21;97097.06;;;25.59;69.60
44385;BME280;30101;32.778;34.994;2022-08-11T19:14:28;97089.16;;;25.57;69.44
44385;BME280;30101;32.778;34.994;2022-08-11T19:19:34;97087.88;;;25.54;69.54
44385;BME280;30101;32.778;34.994;2022-08-11T19:24:40;97079.50;;;25.51;69.97
44385;BME280;30101;32.778;34.994;2022-08-11T19:29:48;97087.56;;;25.47;69.89
44385;BME280;30101;32.778;34.994;2022-08-11T19:35:13;97075.19;;;25.41;70.38
44385;BME280;30101;32.778;34.994;2022-08-11T19:40:20;97082.41;;;25.37;70.12
44385;BME280;30101;32.778;34.994;2022-08-11T19:45:24;97079.84;;;25.32;70.39
44385;BME280;30101;32.778;34.994;2022-08-11T19:50:30;97077.78;;;25.29;70.34
44385;BME280;30101;32.778;34.994;2022-08-11T19:55:35;97074.25;;;25.28;70.28
44385;BME280;30101;32.778;34.994;2022-08-11T20:00:43;97074.88;;;25.25;70.83
44385;BME280;30101;32.778;34.994;2022-08-11T20:05:48;97076.66;;;25.21;70.58
44385;BME280;30101;32.778;34.994;2022-08-11T20:11:03;97080.81;;;25.19;70.72
44385;BME280;30101;32.778;34.994;2022-08-11T20:16:08;97067.00;;;25.15;71.22
44385;BME280;30101;32.778;34.994;2022-08-11T20:21:14;97065.69;;;25.13;70.90
44385;BME280;30101;32.778;34.994;2022-08-11T20:26:35;97087.09;;;25.11;71.31
44385;BME280;30101;32.778;34.994;2022-08-11T20:31:41;97076.78;;;25.08;71.46
44385;BME280;30101;32.778;34.994;2022-08-11T20:36:47;97084.50;;;25.06;71.36
44385;BME280;30101;32.778;34.994;2022-08-11T20:42:00;97069.84;;;25.01;71.70
44385;BME280;30101;32.778;34.994;2022-08-11T20:47:05;97074.22;;;25.02;71.95
44385;BME280;30101;32.778;34.994;2022-08-11T20:52:16;97066.63;;;24.99;72.13
44385;BME280;30101;32.778;34.994;2022-08-11T20:57:23;97069.22;;;24.96;72.13
44385;BME280;30101;32.778;34.994;2022-08-11T21:02:49;97079.34;;;24.95;71.90
44385;BME280;30101;32.778;34.994;2022-08-11T21:07:54;97085.75;;;24.91;72.05
44385;BME280;30101;32.778;34.994;2022-08-11T21:13:03;97078.19;;;24.88;72.45
44385;BME280;30101;32.778;34.994;2022-08-11T21:18:29;97074.50;;;24.84;72.17
44385;BME280;30101;32.778;34.994;2022-08-11T21:23:36;97069.19;;;24.79;72.79
44385;BME280;30101;32.778;34.994;2022-08-11T21:28:44;97066.78;;;24.77;72.59
44385;BME280;30101;32.778;34.994;2022-08-11T21:33:49;97068.53;;;24.73;73.00
44385;BME280;30101;32.778;34.994;2022-08-11T21:38:53;97068.53;;;24.73;72.80
44385;BME280;30101;32.778;34.994;2022-08-11T21:43:57;97065.31;;;24.71;73.20
44385;BME280;30101;32.778;34.994;2022-08-11T21:49:01;97063.22;;;24.68;73.21
44385;BME280;30101;32.778;34.994;2022-08-11T21:54:06;97067.88;;;24.67;73.16
44385;BME280;30101;32.778;34.994;2022-08-11T21:59:11;97049.91;;;24.66;72.89
44385;BME280;30101;32.778;34.994;2022-08-11T22:04:15;97064.34;;;24.67;73.31
44385;BME280;30101;32.778;34.994;2022-08-11T22:09:19;97055.97;;;24.63;73.08
44385;BME280;30101;32.778;34.994;2022-08-11T22:14:22;97062.56;;;24.62;73.00
44385;BME280;30101;32.778;34.994;2022-08-11T22:19:27;97056.16;;;24.58;73.20
44385;BME280;30101;32.778;34.994;2022-08-11T22:24:32;97050.84;;;24.53;73.64
44385;BME280;30101;32.778;34.994;2022-08-11T22:29:39;97049.53;;;24.51;73.96
44385;BME280;30101;32.778;34.994;2022-08-11T22:34:53;97044.72;;;24.47;73.96
44385;BME280;30101;32.778;34.994;2022-08-11T22:39:59;97042.13;;;24.42;73.70
44385;BME280;30101;32.778;34.994;2022-08-11T22:45:07;97039.25;;;24.39;73.91
44385;BME280;30101;32.778;34.994;2022-08-11T22:50:11;97038.75;;;24.37;74.26
44385;BME280;30101;32.778;34.994;2022-08-11T22:55:15;97041.28;;;24.33;74.12
44385;BME280;30101;32.778;34.994;2022-08-11T23:00:20;97045.75;;;24.29;74.51
44385;BME280;30101;32.778;34.994;2022-08-11T23:05:33;97040.91;;;24.26;74.59
44385;BME280;30101;32.778;34.994;2022-08-11T23:10:37;97042.03;;;24.25;74.57
44385;BME280;30101;32.778;34.994;2022-08-11T23:15:41;97049.41;;;24.25;74.54
44385;BME280;30101;32.778;34.994;2022-08-11T23:20:46;97039.63;;;24.23;74.55
44385;BME280;30101;32.778;34.994;2022-08-11T23:26:00;97043.16;;;24.24;74.85
44385;BME280;30101;32.778;34.994;2022-08-11T23:31:08;97047.81;;;24.23;74.75
44385;BME280;30101;32.778;34.994;2022-08-11T23:36:13;97046.22;;;24.22;74.72
44385;BME280;30101;32.778;34.994;2022-08-11T23:41:45;97056.66;;;24.20;75.04
44385;BME280;30101;32.778;34.994;2022-08-11T23:46:50;97044.59;;;24.21;75.21
44385;BME280;30101;32.778;34.994;2022-08-11T23:51:55;97047.94;;;24.18;74.94
44385;BME280;30101;32.778;34.994;2022-08-11T23:57:00;97035.91;;;24.19;75.10
